Time;durP1;ratioP1;P1;durP2;ratioP2;P2;SDS_P1;SDS_P2;PMS_P1;PMS_P2;Temp;Humidity;BMP_temperature;BMP_pressure;BME280_temperature;BME280_humidity;BME280_pressure;Samples;Min_cycle;Max_cycle;Signal;HPM_P1;HPM_P2
2023/10/14 00:01:03;;;;;;;1.85;0.30;;;17.30;99.90;;;;;;5036520;28;20082;-76
2023/10/14 00:03:32;;;;;;;2.75;0.20;;;17.20;99.90;;;;;;5036043;28;20083;-75
2023/10/14 00:06:00;;;;;;;2.47;0.30;;;17.10;99.90;;;;;;5036606;28;20038;-75
2023/10/14 00:08:31;;;;;;;2.03;0.20;;;17.00;99.90;;;;;;5036321;28;20029;-76
2023/10/14 00:11:00;;;;;;;2.53;0.22;;;17.00;99.90;;;;;;5036021;28;20044;-75
2023/10/14 00:13:30;;;;;;;2.28;0.38;;;17.00;99.90;;;;;;5036191;28;20109;-74
2023/10/14 00:16:01;;;;;;;3.63;0.15;;;17.00;99.90;;;;;;5035761;28;20052;-75
2023/10/14 00:18:26;;;;;;;1.10;0.10;;;16.90;99.90;;;;;;5018929;28;20037;-75
2023/10/14 00:20:53;;;;;;;4.57;0.45;;;16.80;99.90;;;;;;5036092;28;20032;-75
2023/10/14 00:23:23;;;;;;;2.92;0.28;;;16.80;99.90;;;;;;5035978;28;20084;-76
2023/10/14 00:25:49;;;;;;;2.63;0.30;;;16.60;99.90;;;;;;5018694;28;20544;-76
2023/10/14 00:28:19;;;;;;;2.97;0.30;;;16.70;99.90;;;;;;5001582;28;20089;-76
2023/10/14 00:30:48;;;;;;;1.55;0.20;;;16.70;99.90;;;;;;5019039;28;20112;-77
2023/10/14 00:33:13;;;;;;;2.42;0.20;;;16.70;99.90;;;;;;5018121;28;20485;-77
2023/10/14 00:35:40;;;;;;;3.30;0.45;;;16.60;99.90;;;;;;5035763;28;20045;-76
2023/10/14 00:38:13;;;;;;;2.72;0.50;;;16.60;99.90;;;;;;5001598;28;20549;-77
2023/10/14 00:40:39;;;;;;;2.15;0.40;;;16.60;99.90;;;;;;5035742;28;20033;-75
2023/10/14 00:43:06;;;;;;;2.35;0.20;;;16.60;99.90;;;;;;5035995;28;20022;-74
2023/10/14 00:45:32;;;;;;;1.85;0.22;;;16.60;99.90;;;;;;5034950;28;20104;-76
2023/10/14 00:48:00;;;;;;;0.98;0.20;;;16.60;99.90;;;;;;5018000;28;20470;-75
2023/10/14 00:50:35;;;;;;;1.58;0.20;;;16.60;99.90;;;;;;5017472;28;20041;-76
2023/10/14 00:53:05;;;;;;;2.05;0.30;;;16.50;99.90;;;;;;5017248;28;20029;-76
2023/10/14 00:58:12;;;;;;;2.20;0.30;;;16.50;99.90;;;;;;5035454;28;20119;-76
2023/10/14 01:00:46;;;;;;;3.40;0.40;;;16.40;99.90;;;;;;5035002;28;20033;-76
2023/10/14 01:03:15;;;;;;;2.65;0.43;;;16.30;99.90;;;;;;5035266;28;20035;-75
2023/10/14 01:05:41;;;;;;;5.57;0.32;;;16.20;99.90;;;;;;5035188;28;20037;-75
2023/10/14 01:08:13;;;;;;;4.13;0.60;;;16.10;99.90;;;;;;5034872;28;20030;-75
2023/10/14 01:10:39;;;;;;;4.13;0.40;;;16.10;99.90;;;;;;5017397;28;20033;-76
2023/10/14 01:13:14;;;;;;;5.18;0.40;;;16.00;99.90;;;;;;5017612;28;20347;-75
2023/10/14 01:16:01;;;;;;;4.35;0.30;;;15.90;99.90;;;;;;5034737;28;20041;-76
2023/10/14 01:18:26;;;;;;;4.43;0.25;;;15.80;99.90;;;;;;5035086;28;20397;-76
2023/10/14 01:20:52;;;;;;;2.42;0.20;;;15.90;99.90;;;;;;5034629;28;20036;-76
2023/10/14 01:23:18;;;;;;;4.93;0.35;;;15.80;99.90;;;;;;5034501;28;20053;-76
2023/10/14 01:25:47;;;;;;;2.85;0.30;;;15.80;99.90;;;;;;5034683;28;20450;-75
2023/10/14 01:28:15;;;;;;;2.95;0.30;;;15.80;99.90;;;;;;5034351;28;20037;-75
2023/10/14 01:31:23;;;;;;;2.28;0.25;;;15.80;99.90;;;;;;5034758;28;20394;-76
2023/10/14 01:33:49;;;;;;;3.15;0.30;;;15.70;99.90;;;;;;5017055;28;20357;-75
2023/10/14 01:36:15;;;;;;;7.05;0.65;;;15.70;99.90;;;;;;5034287;28;20397;-75
2023/10/14 01:38:48;;;;;;;6.90;0.50;;;15.70;99.90;;;;;;5034708;28;20483;-76
2023/10/14 01:41:14;;;;;;;6.25;0.57;;;15.60;99.90;;;;;;5034535;28;20470;-76
2023/10/14 01:43:40;;;;;;;4.82;0.40;;;15.70;99.90;;;;;;5034338;28;20065;-77
2023/10/14 01:46:09;;;;;;;6.45;0.50;;;15.60;99.90;;;;;;5034080;28;20044;-76
2023/10/14 01:48:38;;;;;;;6.47;0.50;;;15.50;99.90;;;;;;5034478;28;20413;-76
2023/10/14 01:51:04;;;;;;;3.90;0.30;;;15.50;99.90;;;;;;5034309;28;20425;-76
2023/10/14 01:53:31;;;;;;;7.68;0.70;;;15.50;99.90;;;;;;5044998;28;20174;-75
2023/10/14 01:55:59;;;;;;;10.27;0.55;;;15.40;99.90;;;;;;5054217;28;20051;-75
2023/10/14 01:58:29;;;;;;;8.25;0.80;;;15.40;99.90;;;;;;5054187;28;20052;-76
2023/10/14 02:03:33;;;;;;;4.82;0.65;;;15.30;99.90;;;;;;5053918;28;20052;-76
2023/10/14 02:05:59;;;;;;;4.13;0.63;;;15.30;99.90;;;;;;5054131;28;20025;-76
2023/10/14 02:08:25;;;;;;;5.70;0.68;;;15.30;99.90;;;;;;5034497;28;20058;-76
2023/10/14 02:10:51;;;;;;;9.77;1.20;;;15.30;99.90;;;;;;5033881;28;20108;-76
2023/10/14 02:13:18;;;;;;;7.88;0.88;;;15.30;99.90;;;;;;5033656;28;20072;-76
2023/10/14 02:15:48;;;;;;;10.30;0.80;;;15.30;99.90;;;;;;5033339;28;20417;-77
2023/10/14 02:18:25;;;;;;;8.23;0.85;;;15.20;99.90;;;;;;5016230;28;20030;-77
2023/10/14 02:21:04;;;;;;;9.13;0.90;;;15.30;99.90;;;;;;5033716;28;20030;-77
2023/10/14 02:23:43;;;;;;;7.13;0.90;;;15.20;99.90;;;;;;5017642;28;20049;-76
2023/10/14 02:26:25;;;;;;;4.05;0.60;;;15.20;99.90;;;;;;5033465;28;20490;-77
2023/10/14 02:28:52;;;;;;;6.57;0.65;;;15.20;99.90;;;;;;5033731;28;20044;-76
2023/10/14 02:33:54;;;;;;;8.43;0.80;;;15.30;99.90;;;;;;5033814;28;20083;-77
2023/10/14 02:36:28;;;;;;;7.25;0.93;;;15.30;99.90;;;;;;5033178;28;20037;-78
2023/10/14 02:38:54;;;;;;;10.57;1.52;;;15.30;99.90;;;;;;5033476;28;20064;-76
2023/10/14 02:41:21;;;;;;;8.15;1.00;;;15.20;99.90;;;;;;5015958;28;20063;-77
2023/10/14 02:43:51;;;;;;;12.25;0.80;;;15.20;99.90;;;;;;5015790;28;20026;-77
2023/10/14 02:46:25;;;;;;;8.70;1.00;;;15.20;99.90;;;;;;5033198;28;20033;-76
2023/10/14 02:48:54;;;;;;;5.32;1.05;;;15.10;99.90;;;;;;5033144;28;20029;-76
2023/10/14 02:57:00;;;;;;;10.10;0.93;;;15.00;99.90;;;;;;4989088;28;20053;-77
2023/10/14 02:59:38;;;;;;;8.50;0.90;;;14.90;99.90;;;;;;5033401;28;20026;-78
2023/10/14 03:07:27;;;;;;;8.90;0.88;;;14.80;99.90;;;;;;4992316;28;20038;-77
2023/10/14 03:10:34;;;;;;;12.45;1.10;;;14.80;99.90;;;;;;5033058;28;20055;-77
2023/10/14 03:12:59;;;;;;;9.27;0.95;;;14.80;99.90;;;;;;5033348;28;20417;-77
2023/10/14 03:15:30;;;;;;;11.50;1.00;;;14.70;99.90;;;;;;5032106;28;20033;-77
2023/10/14 03:18:04;;;;;;;9.02;0.90;;;14.70;99.90;;;;;;5057185;28;20033;-77
2023/10/14 03:23:18;;;;;;;9.77;0.73;;;14.70;99.90;;;;;;5057109;28;20123;-78
2023/10/14 03:25:49;;;;;;;12.77;1.50;;;14.70;99.90;;;;;;5056980;28;20040;-78
2023/10/14 03:28:16;;;;;;;12.57;1.73;;;14.70;99.90;;;;;;5039531;28;20033;-77
2023/10/14 03:30:45;;;;;;;7.05;0.90;;;14.70;99.90;;;;;;5039061;28;20027;-77
2023/10/14 03:33:20;;;;;;;10.73;1.00;;;14.70;99.90;;;;;;5056753;28;20036;-77
2023/10/14 03:35:57;;;;;;;8.75;0.80;;;14.70;99.90;;;;;;5056946;28;20029;-77
2023/10/14 03:46:15;;;;;;;10.30;0.98;;;14.50;99.90;;;;;;5056424;28;20036;-78
2023/10/14 03:48:48;;;;;;;11.57;1.23;;;14.40;99.90;;;;;;5056424;28;20478;-78
2023/10/14 03:51:24;;;;;;;10.90;1.33;;;14.40;99.90;;;;;;5023122;28;20025;-77
2023/10/14 03:53:52;;;;;;;8.20;1.05;;;14.40;99.90;;;;;;5056454;28;20033;-78
2023/10/14 03:56:21;;;;;;;8.40;1.08;;;14.40;99.90;;;;;;5056365;28;20029;-78
2023/10/14 03:58:55;;;;;;;10.55;1.52;;;14.30;99.90;;;;;;5056491;28;20060;-78
2023/10/14 04:01:23;;;;;;;13.02;1.00;;;14.20;99.90;;;;;;5056247;28;20111;-78
2023/10/14 04:03:52;;;;;;;8.95;0.98;;;14.20;99.90;;;;;;5056513;28;20055;-78
2023/10/14 04:06:19;;;;;;;10.48;1.13;;;14.20;99.90;;;;;;5056358;28;20080;-78
2023/10/14 04:08:49;;;;;;;8.68;1.17;;;14.10;99.90;;;;;;5038705;28;20033;-78
2023/10/14 04:11:35;;;;;;;11.35;1.30;;;14.10;99.90;;;;;;5056401;28;20458;-77
2023/10/14 04:14:02;;;;;;;13.80;1.20;;;14.10;99.90;;;;;;5056268;28;20071;-78
2023/10/14 04:16:49;;;;;;;12.27;1.15;;;14.10;99.90;;;;;;5055611;28;20025;-77
2023/10/14 04:21:53;;;;;;;9.98;1.80;;;14.10;99.90;;;;;;5055888;28;20038;-78
2023/10/14 04:29:57;;;;;;;7.38;0.85;;;14.00;99.90;;;;;;5036168;28;20040;-78
2023/10/14 04:32:27;;;;;;;8.23;1.27;;;14.00;99.90;;;;;;5035890;28;20029;-78
2023/10/14 04:34:55;;;;;;;13.57;1.35;;;14.00;99.90;;;;;;5034723;28;20076;-79
2023/10/14 04:37:21;;;;;;;10.85;0.98;;;14.10;99.90;;;;;;5035738;28;20116;-79
2023/10/14 04:39:47;;;;;;;11.60;1.08;;;14.00;99.90;;;;;;5035970;28;20108;-78
2023/10/14 04:44:59;;;;;;;9.85;0.88;;;13.90;99.90;;;;;;5035746;28;20029;-78
2023/10/14 04:47:47;;;;;;;8.30;1.05;;;13.80;99.90;;;;;;5035295;28;20070;-79
2023/10/14 04:50:21;;;;;;;8.93;1.10;;;13.80;99.90;;;;;;5035813;28;20029;-78
2023/10/14 04:52:50;;;;;;;13.02;1.13;;;13.80;99.90;;;;;;5035317;28;20037;-78
2023/10/14 04:55:28;;;;;;;6.63;0.88;;;13.80;99.90;;;;;;5035266;28;20025;-79
2023/10/14 05:00:46;;;;;;;12.70;1.08;;;13.70;99.90;;;;;;5035572;28;20112;-78
2023/10/14 05:03:14;;;;;;;10.20;1.35;;;13.70;99.90;;;;;;5022248;28;20029;-78
2023/10/14 05:05:43;;;;;;;10.32;1.30;;;13.70;99.90;;;;;;5015394;28;20034;-79
2023/10/14 05:08:12;;;;;;;13.90;1.05;;;13.60;99.90;;;;;;5015610;28;20022;-78
2023/10/14 05:10:42;;;;;;;11.60;1.25;;;13.60;99.90;;;;;;5015480;28;20033;-78
2023/10/14 05:13:13;;;;;;;10.13;1.17;;;13.50;99.90;;;;;;5015375;28;20034;-78
2023/10/14 05:15:43;;;;;;;10.65;1.40;;;13.50;99.90;;;;;;5014682;28;20034;-79
2023/10/14 05:18:16;;;;;;;10.82;1.05;;;13.50;99.90;;;;;;5015166;28;20077;-79
2023/10/14 05:23:30;;;;;;;8.07;1.08;;;13.40;99.90;;;;;;5016269;28;20038;-77
2023/10/14 05:25:57;;;;;;;17.42;1.35;;;13.40;99.90;;;;;;5035286;28;20033;-77
2023/10/14 05:28:31;;;;;;;8.35;0.82;;;13.30;99.90;;;;;;5034909;28;20459;-77
2023/10/14 05:31:08;;;;;;;13.02;1.38;;;13.30;99.90;;;;;;5034765;28;20044;-77
2023/10/14 05:33:34;;;;;;;8.50;1.33;;;13.30;99.90;;;;;;5034815;28;20192;-76
2023/10/14 05:36:05;;;;;;;11.80;0.70;;;13.20;99.90;;;;;;5034607;28;20103;-77
2023/10/14 05:38:30;;;;;;;17.85;1.13;;;13.30;99.90;;;;;;5034297;28;20029;-77
2023/10/14 05:40:58;;;;;;;11.95;1.20;;;13.20;99.90;;;;;;5034674;28;20025;-76
2023/10/14 05:43:25;;;;;;;10.32;1.02;;;13.20;99.90;;;;;;5034572;28;20068;-79
2023/10/14 05:45:54;;;;;;;13.40;2.00;;;13.20;99.90;;;;;;5034057;28;20025;-81
2023/10/14 05:48:26;;;;;;;11.18;1.10;;;13.20;99.90;;;;;;5044123;28;20037;-80
2023/10/14 05:50:56;;;;;;;;;;;13.20;99.90;;;;;;5054564;28;20067;-82
2023/10/14 05:53:25;;;;;;;8.70;1.13;;;13.20;99.90;;;;;;5051465;28;19913;-79
2023/10/14 05:55:59;;;;;;;8.93;1.13;;;13.20;99.90;;;;;;5053790;28;20036;-81
2023/10/14 05:58:28;;;;;;;9.20;1.00;;;13.20;99.90;;;;;;5054589;28;20044;-82
2023/10/14 06:00:55;;;;;;;8.98;0.80;;;13.20;99.90;;;;;;5053595;28;20036;-81
2023/10/14 06:03:20;;;;;;;14.45;1.30;;;13.20;99.90;;;;;;5020028;28;20477;-81
2023/10/14 06:05:46;;;;;;;12.80;1.38;;;13.20;99.90;;;;;;5036839;28;20041;-83
2023/10/14 06:08:16;;;;;;;8.85;0.70;;;13.20;99.90;;;;;;5018708;28;20025;-79
2023/10/14 06:10:42;;;;;;;13.73;1.23;;;13.30;99.90;;;;;;5035470;28;20033;-79
2023/10/14 06:13:14;;;;;;;13.88;1.52;;;13.30;99.90;;;;;;5049826;28;20033;-79
2023/10/14 06:15:41;;;;;;;8.73;1.15;;;13.40;99.90;;;;;;5052793;28;20536;-80
2023/10/14 06:18:08;;;;;;;8.65;1.17;;;13.40;99.90;;;;;;5035569;28;20469;-77
2023/10/14 06:20:34;;;;;;;13.25;1.85;;;13.40;99.90;;;;;;5053603;28;20075;-78
2023/10/14 06:23:01;;;;;;;13.15;1.42;;;13.50;99.90;;;;;;5051747;28;20120;-79
2023/10/14 06:25:29;;;;;;;11.00;1.05;;;13.50;99.90;;;;;;5052592;28;20091;-79
2023/10/14 06:27:55;;;;;;;7.05;1.15;;;13.50;99.90;;;;;;5053366;28;20041;-78
2023/10/14 06:30:21;;;;;;;10.15;1.15;;;13.50;99.90;;;;;;5053606;28;20025;-79
2023/10/14 06:32:58;;;;;;;13.07;1.17;;;13.60;99.90;;;;;;5053502;28;20040;-79
2023/10/14 06:35:26;;;;;;;8.05;0.85;;;13.60;99.90;;;;;;5036337;28;20059;-77
2023/10/14 06:37:53;;;;;;;9.48;0.90;;;13.60;99.90;;;;;;5053942;28;20033;-78
2023/10/14 06:40:19;;;;;;;11.18;1.17;;;13.60;99.90;;;;;;5031241;28;20041;-78
2023/10/14 06:42:49;;;;;;;13.13;1.60;;;13.70;99.90;;;;;;5035779;28;20025;-78
2023/10/14 06:45:31;;;;;;;10.77;1.25;;;13.60;99.90;;;;;;5053344;28;20037;-78
2023/10/14 06:48:03;;;;;;;10.65;1.35;;;13.70;99.90;;;;;;5052647;28;20029;-78
2023/10/14 06:50:29;;;;;;;10.40;1.00;;;13.70;99.90;;;;;;5033732;28;20144;-78
2023/10/14 06:52:59;;;;;;;14.07;1.50;;;13.70;99.90;;;;;;5053162;28;20025;-77
2023/10/14 06:55:36;;;;;;;13.60;1.45;;;13.70;99.90;;;;;;5034981;28;20449;-80
2023/10/14 06:58:12;;;;;;;11.85;1.27;;;13.60;99.90;;;;;;5048865;28;20041;-79
2023/10/14 07:00:39;;;;;;;16.48;1.42;;;13.60;99.90;;;;;;5052928;28;20087;-80
2023/10/14 07:03:14;;;;;;;8.52;1.02;;;13.60;99.90;;;;;;5053390;28;20025;-79
2023/10/14 07:05:59;;;;;;;14.10;1.95;;;13.70;99.90;;;;;;5052060;28;20041;-80
2023/10/14 07:08:29;;;;;;;12.52;1.45;;;13.70;99.90;;;;;;5053203;28;20426;-79
2023/10/14 07:10:55;;;;;;;11.02;1.30;;;13.70;99.90;;;;;;5053374;28;20032;-79
2023/10/14 07:13:22;;;;;;;10.85;2.03;;;13.70;99.90;;;;;;5034347;28;20465;-78
2023/10/14 07:15:49;;;;;;;13.32;2.13;;;13.60;99.90;;;;;;5052782;28;20045;-79
2023/10/14 07:18:22;;;;;;;10.20;1.15;;;13.70;99.90;;;;;;5053579;28;20083;-79
2023/10/14 07:21:04;;;;;;;11.63;1.50;;;13.70;99.90;;;;;;5053475;28;20121;-79
2023/10/14 07:23:34;;;;;;;12.18;1.70;;;13.70;99.90;;;;;;5053366;28;20029;-80
2023/10/14 07:26:09;;;;;;;10.60;1.52;;;13.70;99.90;;;;;;5053104;28;20033;-79
2023/10/14 07:28:36;;;;;;;16.60;2.42;;;13.80;99.90;;;;;;5048337;28;20017;-80
2023/10/14 07:31:02;;;;;;;13.35;1.52;;;13.80;99.90;;;;;;5051785;28;20040;-78
2023/10/14 07:33:29;;;;;;;12.27;1.55;;;13.90;99.90;;;;;;5052883;28;20029;-79
2023/10/14 07:35:58;;;;;;;9.60;1.38;;;14.00;99.90;;;;;;5052975;28;20041;-81
2023/10/14 07:38:23;;;;;;;14.23;1.75;;;14.00;99.90;;;;;;5029729;28;20120;-84
2023/10/14 07:40:49;;;;;;;36.95;2.30;;;14.00;99.90;;;;;;5028428;28;20112;-83
2023/10/14 07:43:15;;;;;;;9.57;1.40;;;14.00;99.90;;;;;;5037297;28;20032;-82
2023/10/14 07:45:44;;;;;;;13.75;1.45;;;14.10;99.90;;;;;;5046348;28;20037;-83
2023/10/14 07:48:11;;;;;;;12.93;1.17;;;14.00;99.90;;;;;;5056514;28;20032;-84
2023/10/14 07:50:58;;;;;;;10.90;2.03;;;14.00;99.90;;;;;;5053798;28;20167;-83
2023/10/14 07:53:24;;;;;;;12.77;1.52;;;14.00;99.90;;;;;;5036435;28;20131;-82
2023/10/14 07:55:53;;;;;;;17.05;1.85;;;14.00;99.90;;;;;;5055090;28;20032;-83
2023/10/14 07:58:23;;;;;;;12.88;1.45;;;14.00;99.90;;;;;;5039729;28;20033;-79
2023/10/14 08:00:49;;;;;;;20.55;1.95;;;13.90;99.90;;;;;;5054898;28;20091;-81
2023/10/14 08:03:20;;;;;;;16.08;1.83;;;13.90;99.90;;;;;;5039620;28;20077;-79
2023/10/14 08:05:54;;;;;;;15.90;1.92;;;14.00;99.10;;;;;;5056418;28;20056;-79
2023/10/14 08:08:21;;;;;;;8.85;1.27;;;14.00;99.30;;;;;;5042067;28;20116;-81
2023/10/14 08:10:49;;;;;;;10.68;1.17;;;13.90;99.00;;;;;;5059602;28;20484;-81
2023/10/14 08:13:20;;;;;;;12.35;1.50;;;14.00;99.30;;;;;;5058838;28;20028;-80
2023/10/14 08:15:50;;;;;;;11.73;1.27;;;14.00;99.00;;;;;;5058964;28;20033;-80
2023/10/14 08:18:16;;;;;;;12.20;1.67;;;14.00;98.80;;;;;;5039079;28;20048;-79
2023/10/14 08:20:45;;;;;;;15.02;2.22;;;14.10;98.70;;;;;;5057987;28;20470;-80
2023/10/14 08:23:12;;;;;;;14.35;1.70;;;14.10;98.50;;;;;;5057132;28;20025;-80
2023/10/14 08:25:39;;;;;;;13.60;1.42;;;14.10;98.60;;;;;;5057875;28;20033;-80
2023/10/14 08:28:05;;;;;;;11.50;1.63;;;14.20;98.80;;;;;;5055281;28;20550;-80
2023/10/14 08:30:50;;;;;;;11.15;1.40;;;14.20;98.70;;;;;;5057909;28;20107;-80
2023/10/14 08:33:18;;;;;;;14.57;2.05;;;14.30;98.80;;;;;;5055952;28;20027;-81
2023/10/14 08:35:44;;;;;;;11.05;1.88;;;14.30;98.60;;;;;;5058800;28;20021;-80
2023/10/14 08:38:12;;;;;;;14.63;1.58;;;14.40;98.60;;;;;;5057397;28;20029;-80
2023/10/14 08:40:49;;;;;;;14.88;2.28;;;14.50;98.70;;;;;;5038256;28;20029;-78
2023/10/14 08:43:25;;;;;;;18.00;2.00;;;14.50;98.50;;;;;;5054930;28;20063;-79
2023/10/14 08:45:53;;;;;;;13.75;1.60;;;14.70;98.70;;;;;;5055668;28;20536;-78
2023/10/14 08:48:23;;;;;;;13.55;1.35;;;14.80;98.60;;;;;;5055779;28;20037;-78
2023/10/14 08:50:56;;;;;;;14.80;1.95;;;14.90;98.70;;;;;;5055726;28;20040;-78
2023/10/14 08:53:22;;;;;;;14.23;1.63;;;14.90;98.10;;;;;;5037525;28;20029;-78
2023/10/14 08:55:52;;;;;;;11.68;1.40;;;15.00;98.10;;;;;;5037371;28;20436;-78
2023/10/14 08:58:19;;;;;;;9.70;1.42;;;15.10;97.90;;;;;;5055632;28;20448;-78
2023/10/14 09:00:45;;;;;;;19.30;2.70;;;15.10;97.30;;;;;;5037419;28;20035;-76
2023/10/14 09:03:11;;;;;;;13.60;1.50;;;15.10;96.80;;;;;;5019948;28;20112;-78
2023/10/14 09:05:44;;;;;;;11.40;1.55;;;15.00;96.70;;;;;;5040065;28;20389;-79
2023/10/14 09:08:11;;;;;;;;;;;15.00;96.30;;;;;;5057159;28;20047;-79
2023/10/14 09:10:37;;;;;;;11.45;1.40;;;15.00;96.30;;;;;;5037379;28;19916;-80
2023/10/14 09:13:08;;;;;;;11.70;1.83;;;15.10;96.70;;;;;;5055771;28;20037;-78
2023/10/14 09:15:39;;;;;;;12.93;1.45;;;15.20;96.50;;;;;;5056508;28;20033;-81
2023/10/14 09:18:16;;;;;;;10.27;1.50;;;15.20;95.90;;;;;;5055952;28;20099;-80
2023/10/14 09:20:42;;;;;;;9.60;1.35;;;15.20;96.20;;;;;;5053426;28;20021;-80
2023/10/14 09:23:14;;;;;;;15.65;1.50;;;15.20;96.60;;;;;;5037156;28;20033;-82
2023/10/14 09:25:45;;;;;;;16.00;2.15;;;15.30;96.70;;;;;;5055969;28;20037;-79
2023/10/14 09:28:12;;;;;;;14.73;1.55;;;15.40;96.10;;;;;;5039431;28;20076;-78
2023/10/14 09:30:44;;;;;;;11.90;1.73;;;15.50;96.00;;;;;;5038384;28;20458;-80
2023/10/14 09:33:15;;;;;;;15.77;1.98;;;15.50;96.10;;;;;;5056188;28;20037;-79
2023/10/14 09:35:43;;;;;;;11.85;1.50;;;15.50;95.70;;;;;;5055438;28;20527;-82
2023/10/14 09:38:09;;;;;;;10.60;1.45;;;15.50;94.80;;;;;;5051644;28;20041;-82
2023/10/14 09:40:36;;;;;;;15.05;2.10;;;15.40;94.60;;;;;;5037810;28;20041;-78
2023/10/14 09:43:03;;;;;;;10.90;1.58;;;15.30;94.90;;;;;;5038026;28;20100;-80
2023/10/14 09:45:32;;;;;;;11.25;1.35;;;15.40;95.00;;;;;;5035276;28;20040;-79
2023/10/14 09:48:01;;;;;;;12.25;1.70;;;15.50;95.30;;;;;;5055419;28;20039;-80
2023/10/14 09:50:29;;;;;;;15.18;2.05;;;15.60;94.90;;;;;;5054134;28;20025;-80
2023/10/14 09:52:57;;;;;;;13.48;1.70;;;15.60;95.00;;;;;;5056255;28;20089;-82
2023/10/14 09:55:24;;;;;;;13.98;1.83;;;15.70;95.10;;;;;;5055306;28;20029;-80
2023/10/14 09:57:50;;;;;;;10.52;1.38;;;15.80;94.90;;;;;;5054140;28;20447;-78
2023/10/14 10:00:16;;;;;;;10.00;1.38;;;15.80;94.50;;;;;;5034275;28;20033;-76
2023/10/14 10:02:45;;;;;;;11.10;1.60;;;15.90;94.60;;;;;;5036065;28;20371;-77
2023/10/14 10:05:17;;;;;;;17.83;1.80;;;15.90;93.90;;;;;;5048908;28;20028;-77
2023/10/14 10:07:42;;;;;;;12.48;1.73;;;15.90;93.50;;;;;;5046672;28;20033;-79
2023/10/14 10:10:16;;;;;;;7.50;1.33;;;15.90;93.10;;;;;;5049304;28;20036;-80
2023/10/14 10:12:45;;;;;;;8.25;1.27;;;15.90;91.90;;;;;;5044152;28;20040;-79
2023/10/14 10:15:19;;;;;;;11.13;1.30;;;15.90;91.80;;;;;;5041405;28;20026;-79
2023/10/14 10:18:06;;;;;;;11.52;1.33;;;16.00;92.20;;;;;;5042800;28;20048;-76
2023/10/14 10:20:35;;;;;;;9.43;1.38;;;16.00;91.40;;;;;;5043490;28;20509;-79
2023/10/14 10:23:02;;;;;;;8.23;1.92;;;16.00;91.40;;;;;;5049119;28;20083;-76
2023/10/14 10:25:36;;;;;;;7.20;1.38;;;15.90;91.50;;;;;;5048007;28;20187;-78
2023/10/14 10:28:26;;;;;;;2.63;0.73;;;15.80;91.00;;;;;;5047031;28;20474;-80
2023/10/14 10:31:03;;;;;;;3.22;0.30;;;15.60;87.20;;;;;;5043808;28;20108;-81
2023/10/14 10:33:50;;;;;;;3.33;0.45;;;15.40;84.70;;;;;;5043185;28;20041;-79
2023/10/14 10:36:31;;;;;;;2.15;0.40;;;15.10;87.60;;;;;;5042009;28;20462;-81
2023/10/14 10:39:15;;;;;;;9.88;0.60;;;15.00;89.10;;;;;;5033259;28;20029;-78
2023/10/14 10:41:42;;;;;;;2.92;0.50;;;14.90;90.20;;;;;;5036335;28;20470;-77
2023/10/14 10:44:10;;;;;;;4.93;0.50;;;14.80;90.80;;;;;;5033895;28;20104;-80
2023/10/14 10:46:44;;;;;;;5.53;0.43;;;14.70;90.90;;;;;;5033751;28;20540;-79
2023/10/14 10:49:12;;;;;;;9.82;1.00;;;14.60;88.40;;;;;;5033105;28;20520;-80
2023/10/14 10:52:13;;;;;;;11.25;1.35;;;14.70;91.30;;;;;;5018494;28;20044;-80
2023/10/14 10:54:43;;;;;;;11.32;1.70;;;14.90;92.40;;;;;;5033500;28;20029;-79
2023/10/14 10:57:13;;;;;;;8.68;1.27;;;15.00;92.90;;;;;;5032939;28;20034;-77
2023/10/14 10:59:40;;;;;;;10.93;1.33;;;15.20;93.40;;;;;;5045936;28;20497;-78
2023/10/14 11:02:08;;;;;;;10.35;0.95;;;15.30;93.80;;;;;;5047067;28;20120;-78
2023/10/14 11:04:34;;;;;;;11.40;1.25;;;15.50;93.80;;;;;;5052689;28;20061;-79
2023/10/14 11:07:00;;;;;;;8.27;1.58;;;15.50;93.50;;;;;;5028754;28;20100;-76
2023/10/14 11:09:30;;;;;;;10.70;1.20;;;15.50;93.20;;;;;;5046031;28;20044;-74
2023/10/14 11:12:03;;;;;;;11.88;1.58;;;15.50;93.00;;;;;;5045561;28;20107;-77
2023/10/14 11:14:29;;;;;;;12.90;1.80;;;15.40;93.60;;;;;;5044388;28;20142;-76
2023/10/14 11:16:58;;;;;;;7.72;1.33;;;15.50;93.70;;;;;;5047599;28;20029;-75
2023/10/14 11:19:31;;;;;;;12.43;1.20;;;15.50;93.70;;;;;;5029838;28;20037;-78
2023/10/14 11:22:00;;;;;;;6.97;1.10;;;15.50;93.70;;;;;;5040610;28;20529;-78
2023/10/14 11:24:26;;;;;;;13.18;1.48;;;15.50;93.90;;;;;;5049419;28;20099;-77
2023/10/14 11:26:53;;;;;;;12.32;1.45;;;15.50;93.80;;;;;;5032920;28;20108;-79
2023/10/14 11:29:23;;;;;;;9.43;1.35;;;15.50;93.20;;;;;;5033305;28;20071;-78
2023/10/14 11:31:53;;;;;;;11.75;0.98;;;15.40;93.30;;;;;;5032517;28;20497;-79
2023/10/14 11:34:20;;;;;;;5.18;0.60;;;15.30;93.80;;;;;;5032835;28;20030;-80
2023/10/14 11:36:48;;;;;;;5.00;0.60;;;15.20;92.70;;;;;;5018136;28;20032;-79
2023/10/14 11:39:24;;;;;;;4.20;0.60;;;15.20;91.00;;;;;;5019108;28;20034;-80
2023/10/14 11:41:50;;;;;;;5.70;0.47;;;15.10;90.70;;;;;;5036737;28;20048;-79
2023/10/14 11:44:17;;;;;;;4.85;0.40;;;15.10;90.50;;;;;;5019184;28;20466;-79
2023/10/14 11:46:44;;;;;;;4.00;0.50;;;15.00;90.20;;;;;;5035825;28;20452;-79
2023/10/14 11:49:14;;;;;;;7.57;0.70;;;14.90;90.00;;;;;;5036706;28;20471;-79
2023/10/14 11:51:43;;;;;;;5.82;0.60;;;14.80;90.30;;;;;;5036068;28;20033;-79
2023/10/14 11:54:11;;;;;;;4.18;0.57;;;14.80;90.90;;;;;;5018877;28;20037;-79
2023/10/14 11:56:41;;;;;;;7.00;1.02;;;14.90;91.10;;;;;;5036449;28;20087;-79
2023/10/14 11:59:07;;;;;;;9.63;1.30;;;15.10;90.70;;;;;;5035864;28;20038;-79
2023/10/14 12:01:34;;;;;;;10.05;1.27;;;15.20;90.80;;;;;;5036375;28;20446;-79
2023/10/14 12:04:05;;;;;;;7.72;0.90;;;15.30;91.40;;;;;;5018744;28;20057;-79
2023/10/14 12:06:34;;;;;;;8.07;1.98;;;15.40;91.50;;;;;;5036207;28;20183;-79
2023/10/14 12:09:05;;;;;;;11.50;1.58;;;15.40;91.30;;;;;;5036116;28;20064;-79
2023/10/14 12:11:39;;;;;;;5.57;0.88;;;15.40;91.20;;;;;;5036214;28;20034;-79
2023/10/14 12:14:07;;;;;;;4.53;0.68;;;15.30;90.70;;;;;;5018519;28;20112;-79
2023/10/14 12:16:33;;;;;;;5.10;0.90;;;15.40;91.00;;;;;;5035524;28;20040;-80
2023/10/14 12:18:59;;;;;;;8.68;1.23;;;15.60;91.30;;;;;;5036216;28;20029;-80
2023/10/14 12:21:24;;;;;;;10.90;1.25;;;15.70;91.10;;;;;;5035839;28;20359;-79
2023/10/14 12:23:51;;;;;;;11.98;1.30;;;15.70;91.10;;;;;;5007597;28;20405;-80
2023/10/14 12:26:17;;;;;;;8.90;0.82;;;15.70;91.90;;;;;;5019330;28;20383;-77
2023/10/14 12:28:43;;;;;;;8.63;0.90;;;15.50;91.60;;;;;;5016160;28;20026;-78
2023/10/14 12:31:12;;;;;;;5.57;0.65;;;15.40;91.20;;;;;;5015966;28;20084;-78
2023/10/14 12:33:39;;;;;;;8.02;0.65;;;15.20;91.30;;;;;;5015631;28;20037;-79
2023/10/14 12:36:13;;;;;;;8.00;0.68;;;15.20;91.40;;;;;;5015491;28;20041;-79
2023/10/14 12:38:42;;;;;;;5.00;0.50;;;15.20;92.10;;;;;;5015631;28;20441;-79
2023/10/14 12:41:21;;;;;;;5.97;1.02;;;15.30;92.50;;;;;;5015538;28;20309;-78
2023/10/14 12:43:50;;;;;;;8.23;1.23;;;15.40;92.90;;;;;;5015436;28;20046;-79
2023/10/14 12:48:43;;;;;;;5.35;0.60;;;15.70;91.30;;;;;;5014540;28;20033;-79
2023/10/14 12:51:11;;;;;;;5.78;0.73;;;15.90;91.40;;;;;;5015759;28;20030;-78
2023/10/14 12:53:47;;;;;;;7.65;0.82;;;16.10;91.60;;;;;;5015421;28;20037;-77
2023/10/14 12:56:22;;;;;;;8.70;0.88;;;16.30;91.40;;;;;;5015617;28;20040;-79
2023/10/14 12:58:49;;;;;;;7.18;0.90;;;16.40;91.30;;;;;;5013918;28;20037;-79
2023/10/14 13:01:17;;;;;;;9.63;1.00;;;16.60;91.70;;;;;;5015543;28;20086;-78
2023/10/14 13:03:53;;;;;;;5.47;0.70;;;16.70;90.60;;;;;;5014926;28;20101;-78
2023/10/14 13:06:23;;;;;;;8.43;0.73;;;16.70;90.90;;;;;;5015471;28;20033;-79
2023/10/14 13:08:59;;;;;;;6.30;0.70;;;16.80;90.30;;;;;;5014921;28;20124;-80
2023/10/14 13:11:25;;;;;;;5.90;0.73;;;16.70;90.10;;;;;;5015323;28;20025;-80
2023/10/14 13:13:52;;;;;;;4.03;0.60;;;16.60;90.70;;;;;;5015189;28;20128;-80
2023/10/14 13:16:18;;;;;;;5.80;0.60;;;16.50;91.00;;;;;;5014450;28;20087;-79
2023/10/14 13:18:45;;;;;;;5.07;0.73;;;16.40;90.90;;;;;;5015204;28;20026;-79
2023/10/14 13:21:14;;;;;;;5.88;0.65;;;16.40;91.10;;;;;;5015006;28;20033;-79
2023/10/14 13:23:42;;;;;;;8.15;0.93;;;16.40;91.50;;;;;;5019176;28;20132;-80
2023/10/14 13:26:09;;;;;;;5.28;0.50;;;16.30;91.80;;;;;;5034644;28;20034;-77
2023/10/14 13:28:36;;;;;;;7.13;0.77;;;16.30;91.70;;;;;;5020786;28;20112;-84
2023/10/14 13:31:04;;;;;;;9.23;0.85;;;16.20;91.50;;;;;;5035819;28;20037;-82
2023/10/14 13:33:30;;;;;;;7.05;0.70;;;16.10;91.60;;;;;;5034877;28;20025;-83
2023/10/14 13:35:56;;;;;;;6.40;0.65;;;15.90;91.90;;;;;;5034995;28;20033;-81
2023/10/14 13:38:23;;;;;;;6.95;0.70;;;15.70;91.90;;;;;;5033174;28;20042;-80
2023/10/14 13:40:49;;;;;;;8.75;0.90;;;15.50;92.40;;;;;;5036128;28;20056;-78
2023/10/14 13:43:17;;;;;;;8.63;0.60;;;15.40;93.40;;;;;;5042980;28;20029;-77
2023/10/14 13:45:43;;;;;;;6.25;0.75;;;15.40;93.80;;;;;;5041738;28;20037;-81